createdAt,value
2023-04-25T00:00:10.079Z,35.00
2023-04-25T00:01:10.093Z,42.90
2023-04-25T00:02:10.216Z,39.20
2023-04-25T00:03:10.235Z,38.00
2023-04-25T00:04:10.172Z,45.90
2023-04-25T00:05:10.281Z,45.29
2023-04-25T00:06:10.011Z,38.20
2023-04-25T00:07:09.996Z,37.40
2023-04-25T00:08:09.989Z,36.79
2023-04-25T00:09:09.980Z,42.59
2023-04-25T00:10:09.968Z,46.29
2023-04-25T00:11:09.952Z,48.90
2023-04-25T00:12:09.949Z,32.90
2023-04-25T00:13:09.925Z,46.29
2023-04-25T00:14:09.924Z,38.09
2023-04-25T00:15:09.906Z,40.70
2023-04-25T00:16:09.977Z,46.90
2023-04-25T00:17:09.908Z,40.40
2023-04-25T00:18:09.888Z,39.00
2023-04-25T00:19:09.858Z,33.20
2023-04-25T00:20:09.882Z,38.70
2023-04-25T00:21:09.856Z,42.70
2023-04-25T00:22:09.837Z,36.79
2023-04-25T00:23:09.833Z,45.20
2023-04-25T00:24:09.821Z,49.09
2023-04-25T00:25:09.802Z,40.70
2023-04-25T00:26:09.808Z,42.50
2023-04-25T00:27:09.779Z,40.40
2023-04-25T00:28:09.778Z,36.20
2023-04-25T00:29:09.762Z,47.79
2023-04-25T00:30:09.759Z,39.70
2023-04-25T00:31:09.774Z,45.29
2023-04-25T00:32:09.736Z,42.09
2023-04-25T00:33:09.770Z,34.40
2023-04-25T00:34:09.715Z,44.09
2023-04-25T00:35:09.700Z,49.59
2023-04-25T00:36:09.691Z,57.29
2023-04-25T00:37:09.672Z,48.09
2023-04-25T00:38:09.674Z,55.20
2023-04-25T00:39:09.648Z,48.50
2023-04-25T00:40:09.654Z,44.20
2023-04-25T00:41:09.646Z,43.90
2023-04-25T00:42:09.622Z,54.70
2023-04-25T00:43:09.611Z,52.59
2023-04-25T00:44:09.604Z,47.59
2023-04-25T00:45:09.608Z,50.09
2023-04-25T00:46:09.630Z,54.00
2023-04-25T00:47:09.566Z,47.29
2023-04-25T00:48:09.558Z,49.40
2023-04-25T00:49:09.568Z,39.90
2023-04-25T00:50:09.540Z,43.09
2023-04-25T00:51:09.531Z,39.09
2023-04-25T00:52:09.518Z,45.09
2023-04-25T00:53:09.499Z,39.50
2023-04-25T00:54:09.501Z,36.70
2023-04-25T00:55:09.486Z,37.29
2023-04-25T00:56:09.471Z,47.09
2023-04-25T00:57:09.467Z,38.90
2023-04-25T00:58:09.458Z,41.20
2023-04-25T00:59:09.439Z,51.29
2023-04-25T01:00:09.432Z,37.90
2023-04-25T01:01:09.458Z,41.20
2023-04-25T01:02:09.459Z,43.70
2023-04-25T01:03:09.538Z,43.40
2023-04-25T01:04:09.571Z,36.59
2023-04-25T01:05:09.396Z,39.09
2023-04-25T01:06:09.373Z,42.00
2023-04-25T01:07:09.355Z,65.59
2023-04-25T01:08:09.352Z,38.40
2023-04-25T01:09:09.337Z,36.90
2023-04-25T01:10:09.324Z,45.20
2023-04-25T01:11:09.303Z,41.79
2023-04-25T01:12:09.308Z,38.70
2023-04-25T01:13:09.285Z,40.70
2023-04-25T01:14:09.292Z,40.50
2023-04-25T01:15:09.265Z,36.09
2023-04-25T01:16:09.323Z,29.60
2023-04-25T01:17:09.272Z,40.59
2023-04-25T01:18:09.378Z,43.40
2023-04-25T01:19:09.221Z,34.29
2023-04-25T01:20:09.223Z,42.50
2023-04-25T01:21:09.333Z,49.59
2023-04-25T01:22:09.212Z,51.79
2023-04-25T01:23:09.181Z,41.29
2023-04-25T01:24:09.177Z,49.59
2023-04-25T01:25:09.161Z,37.50
2023-04-25T01:26:09.164Z,42.59
2023-04-25T01:27:09.137Z,39.09
2023-04-25T01:28:09.141Z,38.40
2023-04-25T01:29:09.120Z,36.40
2023-04-25T01:30:09.122Z,46.20
2023-04-25T01:31:09.100Z,33.90
2023-04-25T01:32:09.168Z,42.59
2023-04-25T01:33:09.170Z,41.50
2023-04-25T01:34:09.074Z,39.20
2023-04-25T01:35:09.066Z,46.40
2023-04-25T01:36:09.056Z,41.70
2023-04-25T01:37:09.054Z,47.90
2023-04-25T01:38:09.032Z,49.29
2023-04-25T01:39:09.019Z,49.00
2023-04-25T01:40:09.034Z,43.79
2023-04-25T01:41:08.993Z,46.59
2023-04-25T01:42:08.989Z,40.50
2023-04-25T01:43:08.969Z,41.29
2023-04-25T01:44:08.968Z,41.50
2023-04-25T01:45:08.953Z,46.20
2023-04-25T01:46:08.997Z,38.40
2023-04-25T01:47:08.940Z,39.20
2023-04-25T01:48:08.971Z,33.29
2023-04-25T01:49:08.905Z,41.00
2023-04-25T01:50:08.915Z,33.90
2023-04-25T01:51:08.896Z,45.59
2023-04-25T01:52:08.886Z,46.70
2023-04-25T01:53:08.887Z,39.59
2023-04-25T01:54:08.867Z,35.29
2023-04-25T01:55:08.843Z,33.40
2023-04-25T01:56:08.849Z,38.00
2023-04-25T01:57:08.823Z,42.79
2023-04-25T01:58:08.822Z,42.59
2023-04-25T01:59:08.804Z,44.00
2023-04-25T02:00:08.800Z,40.29
2023-04-25T02:01:08.802Z,28.50
2023-04-25T02:02:08.837Z,35.40
2023-04-25T02:03:08.944Z,35.09
2023-04-25T02:04:08.998Z,43.09
2023-04-25T02:05:08.733Z,37.40
2023-04-25T02:06:08.743Z,47.50
2023-04-25T02:07:08.729Z,39.79
2023-04-25T02:08:08.704Z,38.70
2023-04-25T02:09:08.724Z,46.59
2023-04-25T02:10:08.791Z,44.40
2023-04-25T02:11:08.680Z,43.29
2023-04-25T02:12:08.665Z,42.20
2023-04-25T02:13:08.667Z,40.00
2023-04-25T02:14:08.639Z,46.50
2023-04-25T02:15:08.647Z,40.79
2023-04-25T02:16:08.733Z,42.50
2023-04-25T02:17:08.781Z,43.29
2023-04-25T02:18:08.645Z,44.40
2023-04-25T02:19:08.591Z,59.40
2023-04-25T02:20:08.586Z,50.20
2023-04-25T02:21:08.586Z,54.79
2023-04-25T02:22:08.555Z,55.29
2023-04-25T02:23:08.555Z,57.40
2023-04-25T02:24:08.542Z,41.40
2023-04-25T02:25:08.557Z,39.29
2023-04-25T02:26:08.515Z,40.50
2023-04-25T02:27:08.515Z,43.90
2023-04-25T02:28:08.501Z,37.79
2023-04-25T02:29:08.491Z,45.90
2023-04-25T02:30:08.473Z,47.90
2023-04-25T02:31:08.548Z,49.90
2023-04-25T02:32:08.457Z,49.59
2023-04-25T02:33:08.538Z,46.79
2023-04-25T02:34:08.437Z,49.20
2023-04-25T02:35:08.432Z,42.29
2023-04-25T02:36:08.411Z,38.50
2023-04-25T02:37:08.407Z,53.09
2023-04-25T02:38:08.389Z,46.29
2023-04-25T02:39:08.394Z,53.40
2023-04-25T02:40:08.370Z,46.00
2023-04-25T02:41:08.384Z,46.09
2023-04-25T02:42:08.348Z,46.90
2023-04-25T02:43:08.347Z,46.70
2023-04-25T02:44:08.330Z,55.90
2023-04-25T02:45:08.341Z,44.59
2023-04-25T02:46:08.333Z,51.90
2023-04-25T02:47:08.370Z,57.70
2023-04-25T02:48:08.337Z,62.50
2023-04-25T02:49:08.297Z,49.40
2023-04-25T02:50:08.268Z,46.59
2023-04-25T02:51:08.254Z,49.90
2023-04-25T02:52:08.245Z,49.79
2023-04-25T02:53:08.234Z,42.90
2023-04-25T02:54:08.217Z,47.59
2023-04-25T02:55:08.211Z,62.09
2023-04-25T02:56:08.203Z,51.29
2023-04-25T02:57:08.219Z,39.29
2023-04-25T02:58:08.172Z,45.00
2023-04-25T02:59:08.171Z,46.59
2023-04-25T03:00:08.155Z,46.59
2023-04-25T03:01:08.209Z,48.40
2023-04-25T03:02:08.134Z,62.40
2023-04-25T03:03:08.199Z,52.29
2023-04-25T03:04:08.141Z,47.79
2023-04-25T03:05:08.113Z,41.59
2023-04-25T03:06:08.096Z,56.90
2023-04-25T03:07:08.085Z,49.40
2023-04-25T03:08:08.075Z,46.29
2023-04-25T03:09:08.078Z,50.70
2023-04-25T03:10:08.050Z,46.79
2023-04-25T03:11:08.048Z,68.69
2023-04-25T03:12:08.025Z,67.50
2023-04-25T03:13:08.086Z,49.40
2023-04-25T03:14:08.005Z,59.50
2023-04-25T03:15:08.005Z,51.20
2023-04-25T03:16:08.017Z,54.29
2023-04-25T03:17:07.991Z,38.40
2023-04-25T03:18:08.006Z,42.40
2023-04-25T03:19:07.967Z,44.50
2023-04-25T03:20:07.964Z,45.70
2023-04-25T03:21:07.961Z,45.50
2023-04-25T03:22:07.931Z,46.79
2023-04-25T03:23:07.913Z,57.50
2023-04-25T03:24:07.902Z,62.20
2023-04-25T03:25:07.894Z,47.70
2023-04-25T03:26:07.892Z,54.00
2023-04-25T03:27:07.878Z,55.40
2023-04-25T03:28:07.856Z,44.20
2023-04-25T03:29:07.890Z,55.00
2023-04-25T03:30:07.837Z,57.59
2023-04-25T03:31:07.827Z,65.00
2023-04-25T03:32:07.943Z,53.90
2023-04-25T03:33:07.973Z,54.50
2023-04-25T03:34:07.797Z,61.59
2023-04-25T03:35:07.792Z,52.70
2023-04-25T03:36:07.775Z,45.29
2023-04-25T03:37:07.767Z,58.70
2023-04-25T03:38:07.755Z,52.20
2023-04-25T03:39:07.753Z,50.29
2023-04-25T03:40:07.734Z,54.50
2023-04-25T03:41:07.727Z,36.09
2023-04-25T03:42:07.713Z,44.59
2023-04-25T03:43:07.713Z,53.29
2023-04-25T03:44:07.690Z,54.20
2023-04-25T03:45:07.712Z,59.29
2023-04-25T03:46:07.729Z,40.79
2023-04-25T03:47:07.685Z,59.00
2023-04-25T03:48:07.708Z,49.79
2023-04-25T03:49:07.643Z,54.40
2023-04-25T03:50:07.624Z,61.20
2023-04-25T03:51:07.637Z,49.20
2023-04-25T03:52:07.624Z,51.40
2023-04-25T03:53:07.602Z,49.40
2023-04-25T03:54:07.581Z,51.59
2023-04-25T03:55:07.588Z,47.70
2023-04-25T03:56:07.561Z,61.09
2023-04-25T03:57:07.507Z,58.70
2023-04-25T03:58:07.542Z,64.90
2023-04-25T03:59:07.498Z,52.40
2023-04-25T04:00:07.479Z,48.29
2023-04-25T04:01:07.483Z,61.00
2023-04-25T04:02:07.494Z,56.09
2023-04-25T04:03:07.588Z,66.40
2023-04-25T04:04:07.687Z,67.50
2023-04-25T04:05:07.609Z,50.29
2023-04-25T04:06:07.407Z,58.29
2023-04-25T04:07:07.409Z,61.59
2023-04-25T04:08:07.384Z,65.90
2023-04-25T04:09:07.397Z,61.70
2023-04-25T04:10:07.383Z,59.29
2023-04-25T04:11:07.390Z,50.50
2023-04-25T04:12:07.343Z,56.09
2023-04-25T04:13:07.340Z,63.29
2023-04-25T04:14:07.312Z,57.00
2023-04-25T04:15:07.310Z,53.09
2023-04-25T04:16:07.326Z,48.59
2023-04-25T04:17:07.331Z,85.90
2023-04-25T04:18:07.320Z,59.50
2023-04-25T04:19:07.268Z,57.29
2023-04-25T04:20:07.263Z,58.70
2023-04-25T04:21:07.252Z,57.90
2023-04-25T04:22:07.234Z,85.50
2023-04-25T04:23:07.234Z,62.59
2023-04-25T04:24:07.211Z,66.30
2023-04-25T04:25:07.211Z,54.00
2023-04-25T04:26:07.193Z,62.50
2023-04-25T04:27:07.206Z,77.09
2023-04-25T04:28:07.172Z,65.00
2023-04-25T04:29:07.173Z,68.50
2023-04-25T04:30:07.149Z,69.00
2023-04-25T04:31:07.192Z,63.90
2023-04-25T04:32:07.122Z,59.29
2023-04-25T04:33:07.206Z,54.90
2023-04-25T04:34:07.135Z,62.09
2023-04-25T04:35:07.103Z,75.80
2023-04-25T04:36:07.081Z,77.19
2023-04-25T04:37:07.080Z,62.50
2023-04-25T04:38:07.060Z,67.50
2023-04-25T04:39:07.055Z,55.79
2023-04-25T04:40:07.039Z,55.50
2023-04-25T04:41:07.036Z,67.50
2023-04-25T04:42:07.021Z,62.79
2023-04-25T04:43:07.032Z,72.50
2023-04-25T04:44:08.882Z,51.90
2023-04-25T04:45:06.991Z,52.90
2023-04-25T04:46:06.995Z,54.79
2023-04-25T04:47:07.000Z,59.29
2023-04-25T04:48:06.999Z,51.20
2023-04-25T04:49:06.973Z,55.90
2023-04-25T04:50:06.944Z,57.09
2023-04-25T04:51:06.927Z,67.90
2023-04-25T04:52:06.913Z,45.50
2023-04-25T04:53:06.915Z,100.69
2023-04-25T04:54:06.888Z,86.30
2023-04-25T04:55:06.891Z,70.59
2023-04-25T04:56:06.864Z,76.69
2023-04-25T04:57:06.874Z,67.09
2023-04-25T04:58:06.880Z,71.80
2023-04-25T04:59:06.861Z,61.59
2023-04-25T05:00:06.839Z,61.59
2023-04-25T05:01:06.872Z,56.70
2023-04-25T05:02:06.811Z,68.40
2023-04-25T05:03:06.994Z,55.79
2023-04-25T05:04:07.003Z,44.79
2023-04-25T05:05:06.813Z,61.09
2023-04-25T05:06:06.777Z,63.09
2023-04-25T05:07:06.785Z,59.09
2023-04-25T05:08:06.744Z,48.59
2023-04-25T05:09:06.740Z,65.69
2023-04-25T05:10:06.725Z,61.50
2023-04-25T05:11:06.713Z,62.00
2023-04-25T05:12:06.771Z,61.79
2023-04-25T05:13:06.707Z,82.69
2023-04-25T05:14:06.694Z,77.59
2023-04-25T05:15:06.686Z,75.09
2023-04-25T05:16:06.720Z,62.09
2023-04-25T05:17:06.660Z,78.50
2023-04-25T05:18:06.666Z,67.80
2023-04-25T05:19:06.633Z,68.90
2023-04-25T05:20:06.626Z,91.90
2023-04-25T05:21:06.653Z,70.59
2023-04-25T05:22:06.622Z,64.90
2023-04-25T05:23:06.596Z,68.40
2023-04-25T05:24:06.574Z,56.29
2023-04-25T05:25:06.577Z,89.59
2023-04-25T05:26:06.557Z,77.80
2023-04-25T05:27:06.549Z,58.09
2023-04-25T05:28:06.555Z,42.90
2023-04-25T05:29:06.541Z,44.59
2023-04-25T05:30:06.518Z,46.50
2023-04-25T05:31:06.530Z,44.79
2023-04-25T05:32:06.558Z,46.90
2023-04-25T05:33:06.563Z,39.29
2023-04-25T05:34:06.468Z,42.20
2023-04-25T05:35:06.484Z,57.90
2023-04-25T05:36:06.450Z,52.00
2023-04-25T05:37:06.595Z,61.09
2023-04-25T05:38:06.424Z,52.09
2023-04-25T05:39:06.416Z,51.79
2023-04-25T05:40:06.402Z,51.00
2023-04-25T05:41:06.409Z,61.50
2023-04-25T05:42:06.377Z,81.69
2023-04-25T05:43:06.378Z,63.90
2023-04-25T05:44:06.365Z,59.20
2023-04-25T05:45:06.357Z,85.09
2023-04-25T05:46:06.350Z,64.19
2023-04-25T05:47:06.336Z,78.69
2023-04-25T05:48:06.385Z,65.00
2023-04-25T05:49:06.315Z,60.50
2023-04-25T05:50:06.299Z,52.79
2023-04-25T05:51:06.292Z,50.59
2023-04-25T05:52:06.272Z,57.79
2023-04-25T05:53:06.288Z,60.00
2023-04-25T05:54:06.243Z,60.09
2023-04-25T05:55:06.247Z,54.09
2023-04-25T05:56:06.231Z,58.79
2023-04-25T05:57:06.228Z,51.00
2023-04-25T05:58:06.204Z,45.40
2023-04-25T05:59:06.215Z,44.70
2023-04-25T06:00:06.184Z,47.20
2023-04-25T06:01:06.194Z,41.00
2023-04-25T06:02:06.194Z,39.00
2023-04-25T06:03:06.378Z,38.79
2023-04-25T06:04:06.506Z,34.90
2023-04-25T06:05:06.336Z,35.20
2023-04-25T06:06:06.595Z,39.70
2023-04-25T06:07:06.130Z,37.09
2023-04-25T06:08:06.103Z,37.00
2023-04-25T06:09:06.129Z,29.60
2023-04-25T06:10:06.094Z,26.00
2023-04-25T06:11:06.076Z,26.89
2023-04-25T06:12:06.068Z,26.50
2023-04-25T06:13:06.052Z,28.70
2023-04-25T06:14:06.041Z,24.29
2023-04-25T06:15:13.177Z,28.50
2023-04-25T06:16:06.097Z,31.60
2023-04-25T06:17:06.014Z,28.10
2023-04-25T06:18:06.078Z,26.20
2023-04-25T06:19:05.987Z,27.00
2023-04-25T06:20:06.957Z,24.00
2023-04-25T06:21:05.969Z,25.20
2023-04-25T06:22:05.949Z,17.10
2023-04-25T06:23:05.941Z,10.60
2023-04-25T06:24:05.937Z,14.39
2023-04-25T06:25:05.941Z,10.00
2023-04-25T06:26:05.918Z,12.80
2023-04-25T06:27:05.900Z,11.80
2023-04-25T06:28:05.903Z,10.50
2023-04-25T06:29:05.871Z,12.50
2023-04-25T06:30:05.883Z,12.39
2023-04-25T06:31:05.894Z,14.10
2023-04-25T06:32:05.851Z,11.89
2023-04-25T06:33:05.877Z,13.60
2023-04-25T06:34:05.835Z,17.00
2023-04-25T06:35:05.811Z,15.89
2023-04-25T06:36:05.819Z,16.79
2023-04-25T06:37:05.790Z,16.70
2023-04-25T06:38:05.800Z,16.60
2023-04-25T06:39:05.772Z,17.50
2023-04-25T06:40:05.761Z,11.80
2023-04-25T06:41:05.764Z,16.00
2023-04-25T06:42:05.749Z,12.30
2023-04-25T06:43:05.724Z,13.50
2023-04-25T06:44:05.725Z,14.10
2023-04-25T06:45:05.713Z,16.20
2023-04-25T06:46:05.698Z,12.80
2023-04-25T06:47:05.721Z,15.00
2023-04-25T06:48:05.741Z,13.89
2023-04-25T06:49:05.659Z,14.80
2023-04-25T06:50:05.670Z,13.60
2023-04-25T06:51:05.638Z,11.89
2023-04-25T06:52:05.633Z,14.60
2023-04-25T06:53:05.614Z,14.89
2023-04-25T06:54:05.617Z,16.60
2023-04-25T06:55:05.602Z,21.00
2023-04-25T06:56:05.599Z,14.00
2023-04-25T06:57:05.602Z,14.19
2023-04-25T06:58:05.573Z,14.10
2023-04-25T06:59:05.551Z,17.79
2023-04-25T07:00:05.547Z,17.60
2023-04-25T07:01:05.553Z,11.69
2023-04-25T07:02:05.523Z,12.50
2023-04-25T07:03:05.616Z,11.19
2023-04-25T07:04:05.648Z,11.19
2023-04-25T07:05:05.491Z,15.69
2023-04-25T07:06:05.485Z,11.39
2023-04-25T07:07:05.468Z,13.30
2023-04-25T07:08:05.472Z,10.60
2023-04-25T07:09:05.452Z,10.89
2023-04-25T07:10:05.448Z,10.69
2023-04-25T07:11:05.430Z,10.30
2023-04-25T07:12:05.420Z,12.10
2023-04-25T07:13:05.451Z,11.30
2023-04-25T07:14:05.400Z,10.80
2023-04-25T07:15:05.384Z,10.00
2023-04-25T07:16:05.435Z,8.80
2023-04-25T07:17:05.364Z,13.50
2023-04-25T07:18:05.438Z,8.80
2023-04-25T07:19:05.346Z,10.10
2023-04-25T07:20:05.343Z,14.80
2023-04-25T07:21:05.340Z,11.80
2023-04-25T07:22:05.320Z,12.69
2023-04-25T07:23:05.291Z,12.69
2023-04-25T07:24:05.310Z,12.10
2023-04-25T07:25:05.344Z,11.19
2023-04-25T07:26:05.278Z,12.60
2023-04-25T07:27:05.260Z,12.19
2023-04-25T07:28:05.256Z,13.69
2023-04-25T07:29:05.274Z,12.19
2023-04-25T07:30:05.237Z,14.19
2023-04-25T07:31:05.207Z,12.89
2023-04-25T07:32:05.329Z,10.80
2023-04-25T07:33:05.260Z,9.89
2023-04-25T07:34:05.200Z,9.19
2023-04-25T07:35:05.178Z,10.80
2023-04-25T07:36:05.215Z,10.30
2023-04-25T07:37:05.144Z,12.10
2023-04-25T07:38:05.161Z,12.80
2023-04-25T07:39:05.128Z,10.30
2023-04-25T07:40:05.128Z,11.00
2023-04-25T07:41:05.113Z,12.19
2023-04-25T07:42:05.127Z,12.30
2023-04-25T07:43:05.090Z,11.10
2023-04-25T07:44:05.094Z,12.69
2023-04-25T07:45:05.095Z,11.60
2023-04-25T07:46:05.097Z,10.60
2023-04-25T07:47:05.046Z,10.69
2023-04-25T07:48:05.081Z,11.19
2023-04-25T07:49:05.020Z,10.50
2023-04-25T07:50:05.021Z,10.50
2023-04-25T07:51:04.991Z,9.39
2023-04-25T07:52:05.021Z,11.10
2023-04-25T07:53:04.988Z,9.69
2023-04-25T07:54:04.968Z,18.70
2023-04-25T07:55:04.954Z,13.00
2023-04-25T07:56:04.950Z,16.29
2023-04-25T07:57:04.955Z,14.89
2023-04-25T07:58:04.940Z,15.30
2023-04-25T07:59:04.914Z,13.19
2023-04-25T08:00:04.908Z,13.30
2023-04-25T08:01:04.916Z,16.20
2023-04-25T08:02:04.896Z,20.20
2023-04-25T08:03:05.068Z,22.29
2023-04-25T08:04:05.057Z,12.89
2023-04-25T08:05:05.093Z,12.69
2023-04-25T08:06:07.913Z,13.00
2023-04-25T08:07:04.826Z,13.80
2023-04-25T08:08:04.823Z,13.10
2023-04-25T08:09:04.817Z,11.69
2023-04-25T08:10:04.809Z,12.30
2023-04-25T08:11:04.793Z,10.60
2023-04-25T08:12:04.792Z,14.30
2023-04-25T08:13:04.764Z,11.50
2023-04-25T08:14:04.773Z,12.00
2023-04-25T08:15:04.743Z,11.19
2023-04-25T08:16:04.808Z,11.80
2023-04-25T08:17:04.756Z,11.69
2023-04-25T08:18:04.782Z,12.00
2023-04-25T08:19:04.700Z,13.89
2023-04-25T08:20:04.703Z,11.30
2023-04-25T08:21:04.678Z,11.19
2023-04-25T08:22:04.684Z,11.80
2023-04-25T08:23:04.652Z,14.80
2023-04-25T08:24:04.662Z,11.30
2023-04-25T08:25:04.639Z,11.39
2023-04-25T08:26:04.634Z,12.00
2023-04-25T08:27:04.619Z,12.69
2023-04-25T08:28:04.613Z,12.00
2023-04-25T08:29:04.590Z,14.10
2023-04-25T08:30:04.601Z,11.50
2023-04-25T08:31:04.593Z,10.80
2023-04-25T08:32:04.561Z,11.60
2023-04-25T08:33:04.865Z,9.89
2023-04-25T08:34:04.546Z,9.60
2023-04-25T08:35:04.532Z,10.80
2023-04-25T08:36:04.522Z,11.39
2023-04-25T08:37:04.499Z,13.50
2023-04-25T08:38:04.505Z,9.00
2023-04-25T08:39:04.487Z,10.60
2023-04-25T08:40:04.510Z,10.60
2023-04-25T08:41:04.463Z,11.30
2023-04-25T08:42:04.461Z,12.50
2023-04-25T08:43:04.437Z,8.50
2023-04-25T08:44:04.469Z,11.10
2023-04-25T08:45:06.178Z,9.89
2023-04-25T08:46:04.417Z,10.39
2023-04-25T08:47:04.508Z,11.39
2023-04-25T08:48:04.434Z,7.90
2023-04-25T08:49:04.424Z,11.50
2023-04-25T08:50:04.369Z,8.60
2023-04-25T08:51:04.348Z,9.10
2023-04-25T08:52:04.350Z,8.10
2023-04-25T08:53:04.325Z,9.80
2023-04-25T08:54:09.478Z,9.19
2023-04-25T08:55:05.359Z,12.30
2023-04-25T08:56:04.300Z,8.10
2023-04-25T08:57:04.301Z,7.09
2023-04-25T08:58:04.282Z,7.59
2023-04-25T08:59:04.269Z,10.10
2023-04-25T09:00:04.269Z,9.89
2023-04-25T09:01:04.257Z,8.10
2023-04-25T09:02:04.263Z,8.60
2023-04-25T09:03:04.520Z,6.50
2023-04-25T09:04:04.354Z,9.50
2023-04-25T09:05:04.249Z,9.30
2023-04-25T09:06:04.188Z,9.00
2023-04-25T09:07:04.187Z,6.30
2023-04-25T09:08:04.179Z,10.50
2023-04-25T09:09:04.149Z,6.59
2023-04-25T09:10:04.144Z,7.80
2023-04-25T09:11:04.127Z,8.39
2023-04-25T09:12:04.124Z,10.50
2023-04-25T09:13:04.109Z,7.40
2023-04-25T09:14:04.102Z,5.50
2023-04-25T09:15:04.088Z,6.30
2023-04-25T09:16:04.150Z,10.89
2023-04-25T09:17:04.195Z,9.19
2023-04-25T09:18:04.120Z,6.80
2023-04-25T09:19:04.047Z,8.39
2023-04-25T09:20:04.037Z,7.90
2023-04-25T09:21:09.784Z,7.00
2023-04-25T09:22:05.054Z,6.69
2023-04-25T09:23:04.006Z,8.50
2023-04-25T09:24:03.995Z,6.90
2023-04-25T09:25:03.976Z,9.19
2023-04-25T09:26:03.975Z,10.60
2023-04-25T09:27:03.966Z,8.10
2023-04-25T09:28:03.953Z,10.00
2023-04-25T09:29:03.932Z,8.30
2023-04-25T09:30:03.954Z,8.00
2023-04-25T09:31:03.910Z,6.59
2023-04-25T09:32:03.936Z,9.60
2023-04-25T09:33:03.951Z,8.19
2023-04-25T09:34:04.433Z,6.00
2023-04-25T09:35:03.862Z,8.60
2023-04-25T09:36:03.876Z,8.50
2023-04-25T09:37:03.934Z,10.10
2023-04-25T09:38:03.851Z,8.60
2023-04-25T09:39:03.861Z,9.10
2023-04-25T09:40:03.828Z,10.69
2023-04-25T09:41:03.806Z,7.19
2023-04-25T09:42:03.796Z,6.69
2023-04-25T09:43:03.785Z,6.59
2023-04-25T09:44:04.133Z,8.10
2023-04-25T09:45:03.768Z,8.50
2023-04-25T09:46:03.772Z,11.89
2023-04-25T09:47:03.745Z,8.60
2023-04-25T09:48:03.823Z,5.30
2023-04-25T09:49:03.717Z,6.50
2023-04-25T09:50:03.717Z,6.50
2023-04-25T09:51:03.705Z,5.80
2023-04-25T09:52:03.710Z,9.19
2023-04-25T09:53:03.709Z,5.40
2023-04-25T09:54:03.685Z,7.19
2023-04-25T09:55:03.669Z,5.09
2023-04-25T09:56:03.665Z,7.40
2023-04-25T09:57:03.633Z,8.19
2023-04-25T09:58:03.632Z,7.09
2023-04-25T09:59:03.609Z,4.90
2023-04-25T10:00:03.629Z,9.39
2023-04-25T10:01:03.675Z,9.19
2023-04-25T10:02:03.585Z,6.40
2023-04-25T10:03:03.686Z,8.50
2023-04-25T10:04:04.148Z,7.90
2023-04-25T10:05:03.582Z,8.89
2023-04-25T10:06:03.549Z,6.90
2023-04-25T10:07:03.524Z,10.60
2023-04-25T10:08:03.551Z,7.00
2023-04-25T10:09:03.652Z,8.60
2023-04-25T10:10:03.504Z,8.80
2023-04-25T10:11:03.482Z,7.09
2023-04-25T10:12:03.487Z,9.69
2023-04-25T10:13:03.459Z,8.60
2023-04-25T10:14:03.459Z,10.80
2023-04-25T10:15:03.454Z,12.89
2023-04-25T10:16:03.465Z,16.20
2023-04-25T10:17:03.430Z,10.89
2023-04-25T10:18:03.474Z,12.00
2023-04-25T10:19:03.398Z,11.10
2023-04-25T10:20:03.408Z,12.30
2023-04-25T10:21:03.378Z,9.30
2023-04-25T10:22:03.371Z,12.50
2023-04-25T10:23:03.350Z,14.39
2023-04-25T10:24:03.353Z,10.19
2023-04-25T10:25:03.490Z,9.50
2023-04-25T10:26:03.331Z,10.89
2023-04-25T10:27:03.324Z,11.80
2023-04-25T10:28:03.319Z,9.19
2023-04-25T10:29:03.287Z,10.80
2023-04-25T10:30:03.298Z,8.39
2023-04-25T10:31:03.363Z,10.00
2023-04-25T10:32:03.308Z,14.30
2023-04-25T10:33:03.252Z,9.39
2023-04-25T10:34:03.245Z,12.89
2023-04-25T10:35:03.227Z,9.00
2023-04-25T10:36:03.219Z,10.50
2023-04-25T10:37:03.200Z,8.60
2023-04-25T10:38:03.209Z,8.60
2023-04-25T10:39:03.204Z,6.50
2023-04-25T10:40:03.175Z,7.30
2023-04-25T10:41:03.223Z,9.50
2023-04-25T10:42:03.147Z,10.89
2023-04-25T10:43:03.151Z,10.10
2023-04-25T10:44:03.125Z,8.39
2023-04-25T10:45:03.134Z,7.69
2023-04-25T10:46:03.119Z,7.90
2023-04-25T10:47:03.290Z,7.00
2023-04-25T10:48:03.200Z,8.60
2023-04-25T10:49:03.127Z,5.90
2023-04-25T10:50:03.068Z,9.50
2023-04-25T10:51:03.067Z,7.40
2023-04-25T10:52:03.039Z,8.80
2023-04-25T10:53:03.046Z,9.30
2023-04-25T10:54:03.038Z,7.40
2023-04-25T10:55:03.021Z,8.19
2023-04-25T10:56:02.994Z,7.30
2023-04-25T10:57:03.152Z,6.90
2023-04-25T10:58:02.990Z,8.69
2023-04-25T10:59:02.981Z,8.10
2023-04-25T11:00:02.958Z,9.39
2023-04-25T11:01:03.024Z,8.50
2023-04-25T11:02:03.040Z,8.30
2023-04-25T11:03:02.990Z,8.19
2023-04-25T11:04:03.104Z,6.30
2023-04-25T11:05:02.964Z,7.59
2023-04-25T11:06:02.891Z,9.39
2023-04-25T11:07:06.915Z,6.59
2023-04-25T11:08:07.790Z,8.80
2023-04-25T11:09:02.867Z,5.69
2023-04-25T11:10:02.840Z,6.80
2023-04-25T11:11:02.840Z,5.59
2023-04-25T11:12:02.829Z,8.19
2023-04-25T11:13:02.850Z,10.60
2023-04-25T11:14:02.799Z,8.10
2023-04-25T11:15:02.799Z,9.30
2023-04-25T11:16:12.179Z,6.69
2023-04-25T11:17:02.835Z,5.59
2023-04-25T11:18:02.828Z,4.19
2023-04-25T11:19:02.754Z,5.40
2023-04-25T11:20:02.753Z,6.00
2023-04-25T11:21:02.737Z,5.00
2023-04-25T11:22:02.738Z,6.19
2023-04-25T11:24:02.696Z,6.19
2023-04-25T11:25:02.694Z,4.69
2023-04-25T11:26:02.683Z,2.70
2023-04-25T11:27:02.686Z,4.69
2023-04-25T11:28:02.648Z,3.29
2023-04-25T11:29:02.678Z,4.19
2023-04-25T11:30:02.651Z,5.50
2023-04-25T11:31:02.631Z,2.70
2023-04-25T11:32:02.683Z,3.79
2023-04-25T11:33:02.750Z,3.20
2023-04-25T11:34:02.599Z,3.29
2023-04-25T11:35:02.645Z,4.59
2023-04-25T11:36:02.566Z,2.90
2023-04-25T11:37:02.580Z,2.70
2023-04-25T11:38:02.554Z,2.79
2023-04-25T11:39:02.540Z,4.90
2023-04-25T11:40:02.531Z,4.19
2023-04-25T11:41:02.705Z,2.00
2023-04-25T11:42:03.672Z,2.70
2023-04-25T11:43:02.512Z,3.90
2023-04-25T11:44:02.480Z,4.09
2023-04-25T11:45:02.594Z,4.19
2023-04-25T11:46:02.498Z,4.59
2023-04-25T11:47:02.452Z,2.59
2023-04-25T11:48:02.455Z,4.59
2023-04-25T11:49:02.434Z,4.00
2023-04-25T11:50:02.415Z,3.79
2023-04-25T11:51:02.414Z,2.79
2023-04-25T11:52:02.392Z,3.09
2023-04-25T11:53:02.394Z,5.09
2023-04-25T11:54:02.373Z,3.29
2023-04-25T11:55:02.371Z,5.09
2023-04-25T11:56:02.363Z,2.90
2023-04-25T11:57:02.349Z,4.09
2023-04-25T11:58:02.331Z,5.19
2023-04-25T11:59:02.410Z,2.70
2023-04-25T12:00:02.309Z,3.09
2023-04-25T12:01:02.333Z,4.09
2023-04-25T12:02:02.283Z,3.20
2023-04-25T12:03:02.335Z,3.79
2023-04-25T12:04:02.556Z,4.90
2023-04-25T12:05:15.868Z,3.20
2023-04-25T12:06:03.511Z,4.09
2023-04-25T12:07:02.303Z,4.59
2023-04-25T12:08:02.225Z,2.70
2023-04-25T12:09:02.221Z,3.90
2023-04-25T12:10:02.459Z,4.19
2023-04-25T12:11:02.203Z,3.40
2023-04-25T12:12:02.173Z,2.79
2023-04-25T12:13:02.174Z,4.09
2023-04-25T12:14:02.158Z,3.00
2023-04-25T12:15:02.154Z,3.79
2023-04-25T12:16:02.187Z,4.19
2023-04-25T12:17:02.173Z,4.40
2023-04-25T12:18:02.187Z,2.79
2023-04-25T12:19:02.109Z,3.79
2023-04-25T12:20:02.092Z,3.59
2023-04-25T12:21:02.101Z,2.40
2023-04-25T12:22:02.070Z,4.00
2023-04-25T12:23:02.072Z,3.90
2023-04-25T12:24:02.047Z,2.79
2023-04-25T12:25:02.052Z,5.30
2023-04-25T12:26:02.025Z,3.40
2023-04-25T12:27:02.092Z,3.50
2023-04-25T12:28:02.012Z,4.40
2023-04-25T12:29:02.020Z,4.09
2023-04-25T12:30:01.978Z,4.09
2023-04-25T12:31:02.094Z,2.09
2023-04-25T12:32:02.007Z,2.59
2023-04-25T12:33:02.107Z,2.79
2023-04-25T12:34:01.939Z,3.29
2023-04-25T12:35:01.947Z,2.70
2023-04-25T12:36:02.925Z,4.40
2023-04-25T12:37:01.909Z,3.00
2023-04-25T12:38:01.911Z,3.90
2023-04-25T12:39:01.912Z,3.70
2023-04-25T12:40:01.885Z,3.29
2023-04-25T12:41:01.886Z,3.09
2023-04-25T12:42:01.882Z,3.40
2023-04-25T12:43:01.849Z,2.20
2023-04-25T12:44:01.835Z,2.70
2023-04-25T12:45:01.832Z,3.50
2023-04-25T12:46:01.820Z,3.70
2023-04-25T12:47:01.924Z,3.40
2023-04-25T12:48:03.955Z,3.50
2023-04-25T12:49:11.675Z,2.20
2023-04-25T12:50:02.837Z,3.20
2023-04-25T12:51:01.773Z,5.50
2023-04-25T12:52:01.754Z,3.00
2023-04-25T12:53:01.753Z,5.00
2023-04-25T12:54:01.726Z,3.40
2023-04-25T12:55:01.733Z,3.09
2023-04-25T12:56:01.719Z,2.20
2023-04-25T12:57:01.721Z,4.30
2023-04-25T12:58:01.693Z,2.20
2023-04-25T12:59:01.681Z,2.00
2023-04-25T13:00:01.657Z,3.40
2023-04-25T13:01:01.763Z,4.69